Wheatley, United Kingdom
Current Conditions -  °F | °C
As of 7:20 PM on Tuesday 21 Oct 2014 (Local Time) from EGTK Reporting Station
Few Clouds Few Clouds  
Wind Chill: 42°   Ceiling: Unl
Heat Index: 48°   Visibility: 6mi
Dew Point: 39°   Wind: 17mph
Humidity: 71%   Direction: 290°WNW
Pressure: 29.97"   Gusts: NA
Location:  51.75°N, 1.14°W
Report Text: EGTK 211820Z 29015KT 9999 FEW042 09/04 Q1015
Loading
Personal Weather Stations






























Interactive Weather Map
Tropical Storm Tracking
New forecast layout! Learn more

10-Day Weather Forecast

Advertisements
Track Severe Weather on mobile